Time;durP1;ratioP1;P1;durP2;ratioP2;P2;SDS_P1;SDS_P2;PMS_P1;PMS_P2;Temp;Humidity;BMP_temperature;BMP_pressure;BME280_temperature;BME280_humidity;BME280_pressure;Samples;Min_cycle;Max_cycle;Signal;HPM_P1;HPM_P2
2023/05/20 00:00:28;;;;;;;6.77;2.80;;;;;;;16.37;60.62;100509.50;5034638;28;20525;-74
2023/05/20 00:02:53;;;;;;;4.07;2.50;;;;;;;16.39;60.59;100512.78;5036834;28;20447;-74
2023/05/20 00:05:18;;;;;;;4.67;2.57;;;;;;;16.39;60.49;100506.50;5035206;28;20399;-74
2023/05/20 00:07:43;;;;;;;2.90;2.37;;;;;;;16.40;60.53;100502.66;5034889;28;20482;-74
2023/05/20 00:10:09;;;;;;;3.63;2.63;;;;;;;16.36;60.59;100510.59;5034704;28;20410;-74
2023/05/20 00:12:36;;;;;;;4.05;2.53;;;;;;;16.35;60.57;100503.50;5029937;28;20416;-74
2023/05/20 00:15:02;;;;;;;5.47;2.75;;;;;;;16.35;60.65;100500.75;5035955;28;20398;-74
2023/05/20 00:17:27;;;;;;;4.83;2.80;;;;;;;16.35;60.49;100497.19;5034614;28;20414;-74
2023/05/20 00:19:53;;;;;;;2.53;2.33;;;;;;;16.37;60.29;100501.28;5034739;28;20406;-74
2023/05/20 00:22:19;;;;;;;2.45;2.22;;;;;;;16.42;60.13;100498.53;5033638;28;20420;-74
2023/05/20 00:24:44;;;;;;;6.97;2.60;;;;;;;16.44;59.85;100498.25;5026539;28;20406;-74
2023/05/20 00:27:09;;;;;;;3.30;2.63;;;;;;;16.46;59.78;100502.34;5037830;28;20759;-74
2023/05/20 00:29:34;;;;;;;2.80;2.23;;;;;;;16.45;59.78;100502.63;5038530;28;20478;-74
2023/05/20 00:32:00;;;;;;;2.73;2.20;;;;;;;16.44;59.71;100496.31;5035818;28;20441;-74
2023/05/20 00:34:25;;;;;;;2.47;2.10;;;;;;;16.45;59.81;100503.44;5039570;28;20432;-74
2023/05/20 00:36:51;;;;;;;4.05;2.42;;;;;;;16.45;59.85;100500.72;5038319;28;20399;-74
2023/05/20 00:39:16;;;;;;;3.97;2.07;;;;;;;16.46;59.77;100496.88;5038189;28;20807;-74
2023/05/20 00:41:41;;;;;;;3.73;2.00;;;;;;;16.47;59.67;100493.03;5038312;28;20453;-74
2023/05/20 00:44:06;;;;;;;3.42;1.70;;;;;;;16.49;59.12;100493.56;5029250;28;20403;-74
2023/05/20 00:46:32;;;;;;;3.50;1.73;;;;;;;16.50;58.50;100494.38;5025337;28;20381;-74
2023/05/20 00:48:57;;;;;;;2.40;1.70;;;;;;;16.52;57.89;100494.91;5037999;28;20417;-74
2023/05/20 00:51:23;;;;;;;4.20;1.60;;;;;;;16.52;57.52;100493.00;5038220;28;20395;-74
2023/05/20 00:53:49;;;;;;;3.57;1.47;;;;;;;16.53;56.92;100499.31;5024447;28;20416;-74
2023/05/20 00:56:15;;;;;;;2.45;1.58;;;;;;;16.56;56.58;100491.34;5039837;28;20406;-74
2023/05/20 00:58:40;;;;;;;2.20;1.37;;;;;;;16.57;56.19;100494.91;5036670;28;20395;-74
2023/05/20 01:01:06;;;;;;;2.97;1.60;;;;;;;16.58;56.14;100494.63;5037745;28;20430;-74
2023/05/20 01:03:32;;;;;;;1.67;1.57;;;;;;;16.63;55.94;100496.50;5032060;28;20414;-74
2023/05/20 01:05:57;;;;;;;1.90;1.70;;;;;;;16.64;55.56;100497.31;5037814;28;20386;-74
2023/05/20 01:08:24;;;;;;;2.15;1.85;;;;;;;16.60;55.74;100495.16;5036315;28;20514;-74
2023/05/20 01:11:10;;;;;;;3.42;1.88;;;;;;;16.60;55.59;100492.41;5037743;28;20897;-74
2023/05/20 01:13:44;;;;;;;1.63;1.45;;;;;;;16.63;55.30;100490.25;5036242;28;20704;-74
2023/05/20 01:16:10;;;;;;;3.15;1.55;;;;;;;16.61;55.40;100490.50;5037689;28;20560;-74
2023/05/20 01:18:38;;;;;;;3.70;1.67;;;;;;;16.62;55.45;100489.41;5028947;28;20420;-74
2023/05/20 01:21:06;;;;;;;4.82;2.03;;;;;;;16.64;55.58;100500.06;5031396;28;20394;-74
2023/05/20 01:23:39;;;;;;;1.92;1.73;;;;;;;16.67;55.42;100494.84;5032481;28;20420;-74
2023/05/20 01:26:05;;;;;;;1.90;1.80;;;;;;;16.64;55.54;100492.69;5025342;28;20387;-74
2023/05/20 01:28:35;;;;;;;2.33;2.13;;;;;;;16.68;55.45;100496.47;5037595;28;20413;-74
2023/05/20 01:31:04;;;;;;;3.50;2.38;;;;;;;16.68;55.57;100495.66;5037368;28;20402;-74
2023/05/20 01:33:33;;;;;;;2.95;1.75;;;;;;;16.67;55.52;100491.28;5048023;28;20405;-74
2023/05/20 01:35:59;;;;;;;2.00;1.80;;;;;;;16.67;55.51;100489.38;5037241;28;20394;-74
2023/05/20 01:38:25;;;;;;;2.70;1.95;;;;;;;16.70;55.49;100487.97;5036111;28;20415;-75
2023/05/20 01:40:53;;;;;;;3.58;2.15;;;;;;;16.72;55.49;100496.75;5037191;28;20399;-74
2023/05/20 01:43:18;;;;;;;5.10;1.88;;;;;;;16.72;55.50;100494.00;5038613;28;20480;-74
2023/05/20 01:45:44;;;;;;;1.90;1.80;;;;;;;16.73;55.64;100493.69;5035960;28;20514;-74
2023/05/20 01:48:10;;;;;;;1.93;1.80;;;;;;;16.73;55.76;100492.91;5037124;28;20525;-74
2023/05/20 01:50:36;;;;;;;2.10;1.73;;;;;;;16.70;55.69;100483.31;5015817;28;20826;-74
2023/05/20 01:53:02;;;;;;;2.73;1.87;;;;;;;16.68;55.86;100479.25;5052417;28;20442;-74
2023/05/20 01:55:27;;;;;;;1.77;1.67;;;;;;;16.65;55.95;100475.16;5036904;28;20428;-74
2023/05/20 01:57:53;;;;;;;3.30;1.87;;;;;;;16.65;56.07;100482.56;5036670;28;20418;-74
2023/05/20 02:00:18;;;;;;;2.00;1.90;;;;;;;16.64;56.15;100478.16;5036745;28;20474;-74
2023/05/20 02:02:43;;;;;;;3.20;1.93;;;;;;;16.64;56.13;100476.25;5037609;28;20413;-74
2023/05/20 02:05:09;;;;;;;4.47;1.90;;;;;;;16.64;55.95;100473.53;5038265;28;20420;-74
2023/05/20 02:07:34;;;;;;;1.80;1.70;;;;;;;16.67;56.07;100480.34;5036621;28;20415;-74
2023/05/20 02:10:00;;;;;;;5.30;2.00;;;;;;;16.66;56.05;100476.00;5036535;28;20427;-74
2023/05/20 02:12:25;;;;;;;3.40;2.00;;;;;;;16.62;56.13;100474.91;5035692;28;20415;-74
2023/05/20 02:14:50;;;;;;;2.17;2.07;;;;;;;16.62;56.10;100462.06;5032802;28;20397;-74
2023/05/20 02:17:16;;;;;;;4.07;1.80;;;;;;;16.62;55.96;100459.31;5036374;28;20419;-74
2023/05/20 02:19:42;;;;;;;3.43;2.20;;;;;;;16.62;56.11;100467.53;5036397;28;20415;-74
2023/05/20 02:22:08;;;;;;;5.75;2.08;;;;;;;16.56;56.21;100460.47;5036456;28;20812;-74
2023/05/20 02:24:33;;;;;;;3.10;1.80;;;;;;;16.56;56.58;100457.72;5035819;28;20433;-74
2023/05/20 02:26:58;;;;;;;3.03;2.03;;;;;;;16.55;56.18;100451.44;5035331;28;20411;-74
2023/05/20 02:29:24;;;;;;;3.97;2.20;;;;;;;16.55;56.14;100448.69;5036129;28;20466;-74
2023/05/20 02:31:50;;;;;;;3.30;1.90;;;;;;;16.54;56.30;100448.94;5036169;28;20441;-74
2023/05/20 02:34:16;;;;;;;1.87;1.77;;;;;;;16.50;56.28;100445.94;5037190;28;20778;-74
2023/05/20 02:36:42;;;;;;;2.40;2.20;;;;;;;16.48;56.33;100448.16;5036816;28;20434;-74
2023/05/20 02:39:07;;;;;;;2.73;1.80;;;;;;;16.46;56.43;100444.91;5034762;28;20898;-74
2023/05/20 02:41:32;;;;;;;2.67;1.70;;;;;;;16.43;56.45;100439.97;5034570;28;20411;-74
2023/05/20 02:43:58;;;;;;;2.90;1.70;;;;;;;16.47;56.26;100440.22;5035192;28;20410;-74
2023/05/20 02:46:23;;;;;;;2.37;1.77;;;;;;;16.47;56.38;100440.22;5037814;28;20389;-74
2023/05/20 02:48:48;;;;;;;3.93;1.80;;;;;;;16.46;56.19;100433.97;5035623;28;20407;-74
2023/05/20 02:51:14;;;;;;;3.77;2.20;;;;;;;16.46;56.15;100433.16;5035797;28;20445;-74
2023/05/20 02:53:39;;;;;;;3.40;2.00;;;;;;;16.45;56.41;100442.44;5026220;28;20417;-74
2023/05/20 02:56:05;;;;;;;2.13;1.93;;;;;;;16.42;56.58;100435.63;5033259;28;20455;-75
2023/05/20 02:58:30;;;;;;;3.67;1.85;;;;;;;16.41;56.46;100442.19;5035701;28;20468;-74
2023/05/20 03:00:56;;;;;;;3.20;1.70;;;;;;;16.39;56.63;100444.41;5035648;28;20427;-74
2023/05/20 03:03:24;;;;;;;2.05;1.75;;;;;;;16.34;56.89;100452.63;5034713;28;20406;-74
2023/05/20 03:05:50;;;;;;;3.08;1.88;;;;;;;16.34;56.88;100440.84;5037265;28;20421;-74
2023/05/20 03:08:15;;;;;;;3.67;2.10;;;;;;;16.31;56.95;100447.72;5022623;28;20426;-74
2023/05/20 03:10:40;;;;;;;7.13;2.20;;;;;;;16.29;57.21;100446.38;5035549;28;20398;-74
2023/05/20 03:13:07;;;;;;;3.27;1.83;;;;;;;16.23;57.19;100451.06;5030986;28;20429;-74
2023/05/20 03:15:34;;;;;;;2.10;1.90;;;;;;;16.21;57.22;100449.69;5036091;28;20407;-74
2023/05/20 03:18:00;;;;;;;3.13;2.17;;;;;;;16.24;56.95;100449.94;5034856;28;20434;-74
2023/05/20 03:20:27;;;;;;;2.35;2.10;;;;;;;16.18;56.93;100447.53;5035484;28;20429;-74
2023/05/20 03:22:53;;;;;;;2.25;2.05;;;;;;;16.14;57.10;100449.19;5033645;28;20954;-74
2023/05/20 03:25:18;;;;;;;2.63;2.40;;;;;;;16.12;57.19;100451.38;5036762;28;20498;-74
2023/05/20 03:27:44;;;;;;;3.05;1.83;;;;;;;16.08;56.90;100448.41;5036757;28;20420;-74
2023/05/20 03:30:09;;;;;;;3.53;2.00;;;;;;;16.04;57.10;100441.84;5035029;28;20434;-74
2023/05/20 03:32:34;;;;;;;3.57;2.30;;;;;;;16.03;56.74;100452.00;5035108;28;20746;-74
2023/05/20 03:35:00;;;;;;;3.03;2.10;;;;;;;16.04;56.82;100450.88;5034557;28;20465;-74
2023/05/20 03:37:26;;;;;;;3.33;2.10;;;;;;;16.05;56.82;100451.69;5037691;28;20405;-74
2023/05/20 03:39:51;;;;;;;1.98;1.88;;;;;;;16.03;56.65;100453.91;5035235;28;20391;-74
2023/05/20 03:42:16;;;;;;;2.50;1.90;;;;;;;16.02;56.55;100452.25;5035049;28;20417;-74
2023/05/20 03:44:41;;;;;;;4.88;2.28;;;;;;;16.02;56.39;100455.00;5030221;28;20446;-74
2023/05/20 03:47:07;;;;;;;4.27;2.03;;;;;;;15.97;56.23;100457.75;5035072;28;20406;-74
2023/05/20 03:49:32;;;;;;;3.93;2.27;;;;;;;15.92;56.46;100453.13;5035171;28;20415;-74
2023/05/20 03:51:57;;;;;;;3.47;2.03;;;;;;;15.96;56.51;100456.13;5035082;28;20716;-74
2023/05/20 03:54:22;;;;;;;4.57;1.97;;;;;;;15.96;56.55;100456.13;5031048;28;20903;-74
2023/05/20 03:56:48;;;;;;;2.93;1.90;;;;;;;15.94;56.51;100461.84;5035085;28;20465;-74
2023/05/20 03:59:13;;;;;;;2.77;2.07;;;;;;;15.88;56.74;100470.34;5036206;28;20500;-74
2023/05/20 04:01:39;;;;;;;5.95;2.10;;;;;;;15.91;56.47;100467.06;5034371;28;20423;-75
2023/05/20 04:04:04;;;;;;;4.33;2.37;;;;;;;15.94;56.74;100455.56;5026010;28;20551;-74
2023/05/20 04:06:30;;;;;;;3.40;1.95;;;;;;;15.92;56.62;100472.25;5032170;28;20410;-74
2023/05/20 04:08:56;;;;;;;6.27;2.07;;;;;;;15.90;56.62;100473.63;5037311;28;20390;-74
2023/05/20 04:11:21;;;;;;;4.57;2.20;;;;;;;15.92;56.50;100469.53;5034866;28;20486;-74
2023/05/20 04:13:46;;;;;;;2.90;2.20;;;;;;;15.93;56.48;100470.34;5031345;28;21400;-74
2023/05/20 04:16:12;;;;;;;3.33;2.10;;;;;;;15.77;56.87;100461.41;5024796;28;20415;-74
2023/05/20 04:18:37;;;;;;;3.10;2.47;;;;;;;15.81;56.75;100462.44;5034490;28;20909;-74
2023/05/20 04:21:03;;;;;;;2.38;2.17;;;;;;;15.72;56.79;100461.41;5034516;28;20399;-74
2023/05/20 04:23:29;;;;;;;2.83;2.28;;;;;;;15.75;56.76;100463.56;5034059;28;20406;-74
2023/05/20 04:25:54;;;;;;;2.90;2.20;;;;;;;15.85;56.59;100459.97;5026134;28;20411;-74
2023/05/20 04:28:22;;;;;;;2.25;1.90;;;;;;;15.89;56.40;100464.63;5033577;28;20493;-74
2023/05/20 04:30:48;;;;;;;2.53;2.15;;;;;;;15.84;56.92;100466.56;5024444;28;20395;-74
2023/05/20 04:33:15;;;;;;;4.38;2.40;;;;;;;15.83;56.78;100465.75;5031208;28;20439;-74
2023/05/20 04:35:40;;;;;;;3.53;2.10;;;;;;;15.87;56.82;100460.53;5028218;28;20399;-74
2023/05/20 04:38:06;;;;;;;2.92;2.17;;;;;;;15.90;57.04;100468.19;5028740;28;20978;-74
2023/05/20 04:40:31;;;;;;;2.85;2.20;;;;;;;15.95;56.86;100468.13;5028728;28;20402;-74
2023/05/20 04:42:58;;;;;;;3.40;2.13;;;;;;;15.92;56.78;100463.22;5032593;28;20407;-74
2023/05/20 04:45:24;;;;;;;2.35;1.95;;;;;;;15.91;56.90;100464.31;5030420;28;20960;-74
2023/05/20 04:47:52;;;;;;;2.22;1.98;;;;;;;15.93;56.83;100467.63;5037055;28;20407;-74
2023/05/20 04:50:17;;;;;;;2.30;2.03;;;;;;;15.96;56.81;100461.59;5033213;28;20476;-74
2023/05/20 04:52:44;;;;;;;4.30;2.33;;;;;;;16.01;56.81;100461.53;5026593;28;20873;-74
2023/05/20 04:55:09;;;;;;;3.38;2.33;;;;;;;16.05;56.67;100457.97;5030780;28;20742;-74
2023/05/20 04:57:37;;;;;;;4.07;2.30;;;;;;;16.03;56.55;100460.19;5029297;28;20424;-74
2023/05/20 05:00:06;;;;;;;2.20;2.00;;;;;;;16.00;56.87;100458.00;5028760;28;20403;-74
2023/05/20 05:02:31;;;;;;;3.83;2.30;;;;;;;15.99;56.90;100452.81;5027345;28;20449;-74
2023/05/20 05:04:56;;;;;;;4.50;2.57;;;;;;;15.93;57.23;100449.31;5030585;28;20406;-74
2023/05/20 05:07:22;;;;;;;2.23;2.03;;;;;;;15.95;57.27;100449.00;5028685;28;20951;-74
2023/05/20 05:09:47;;;;;;;5.85;2.20;;;;;;;15.96;57.33;100450.66;5024646;28;20415;-74
2023/05/20 05:12:12;;;;;;;4.10;2.13;;;;;;;16.00;57.35;100438.84;5026686;28;20417;-74
2023/05/20 05:14:37;;;;;;;6.23;2.37;;;;;;;16.05;56.93;100441.59;5033542;28;20799;-74
2023/05/20 05:17:03;;;;;;;3.50;2.20;;;;;;;16.10;56.77;100435.28;5031571;28;20422;-74
2023/05/20 05:19:28;;;;;;;3.20;2.40;;;;;;;16.11;57.09;100445.09;5035225;28;20415;-74
2023/05/20 05:21:53;;;;;;;2.37;2.17;;;;;;;16.05;57.19;100433.38;5033489;28;20409;-74
2023/05/20 05:24:19;;;;;;;5.35;2.10;;;;;;;16.10;57.51;100429.81;5041044;28;20416;-74
2023/05/20 05:26:44;;;;;;;3.43;2.47;;;;;;;16.16;57.36;100428.69;5032041;28;20413;-74
2023/05/20 05:29:09;;;;;;;3.33;2.30;;;;;;;16.19;57.38;100428.13;5023181;28;20400;-74
2023/05/20 05:31:35;;;;;;;2.33;2.22;;;;;;;16.26;57.12;100428.63;5033435;28;20395;-74
2023/05/20 05:34:00;;;;;;;5.77;2.20;;;;;;;16.26;57.05;100422.34;5044747;28;20889;-74
2023/05/20 05:36:25;;;;;;;5.50;2.50;;;;;;;16.28;57.20;100414.66;5038770;28;20405;-74
2023/05/20 05:38:50;;;;;;;5.07;2.97;;;;;;;16.28;57.01;100417.38;5042282;28;20418;-75
2023/05/20 05:41:16;;;;;;;4.13;2.47;;;;;;;16.30;57.15;100418.72;5031727;28;20486;-74
2023/05/20 05:43:41;;;;;;;2.43;2.10;;;;;;;16.34;57.14;100418.97;5029662;28;20414;-74
2023/05/20 05:46:08;;;;;;;5.73;2.20;;;;;;;16.49;56.80;100416.97;5033240;28;21014;-74
2023/05/20 05:48:33;;;;;;;5.07;2.53;;;;;;;16.56;56.69;100422.94;5036534;28;20880;-74
2023/05/20 05:50:58;;;;;;;3.00;2.17;;;;;;;16.58;56.62;100412.56;5043253;28;20403;-75
2023/05/20 05:53:24;;;;;;;2.90;2.60;;;;;;;16.58;56.84;100426.25;5046464;28;20396;-74
2023/05/20 05:55:49;;;;;;;4.20;2.57;;;;;;;16.56;56.92;100417.47;5045096;28;20413;-74
2023/05/20 05:58:14;;;;;;;4.50;2.50;;;;;;;16.59;57.05;100427.06;5049628;28;20424;-75
2023/05/20 06:00:40;;;;;;;2.60;2.40;;;;;;;16.61;57.07;100427.59;5048409;28;20872;-75
2023/05/20 06:03:06;;;;;;;6.60;3.20;;;;;;;16.62;57.15;100422.94;5031157;28;20411;-74
2023/05/20 06:05:31;;;;;;;3.20;2.53;;;;;;;16.68;57.14;100417.13;5034535;28;20414;-74
2023/05/20 06:07:57;;;;;;;5.90;2.70;;;;;;;16.71;57.05;100415.72;5029236;28;20410;-74
2023/05/20 06:10:22;;;;;;;2.90;2.43;;;;;;;16.71;57.07;100422.03;5017460;28;20401;-75
2023/05/20 06:12:48;;;;;;;5.53;2.97;;;;;;;16.74;57.01;100428.84;5029742;28;20399;-74
2023/05/20 06:15:13;;;;;;;9.30;5.37;;;;;;;16.77;57.04;100420.88;5033645;28;20480;-75
2023/05/20 06:17:38;;;;;;;7.90;3.70;;;;;;;16.77;57.10;100422.78;5038973;28;20413;-74
2023/05/20 06:20:04;;;;;;;4.32;2.80;;;;;;;16.73;57.22;100414.34;5026895;28;20833;-75
2023/05/20 06:22:29;;;;;;;4.73;2.67;;;;;;;16.81;57.35;100429.34;5032264;28;20411;-75
2023/05/20 06:24:59;;;;;;;7.50;5.17;;;;;;;16.86;57.07;100421.09;5032657;28;20458;-74
2023/05/20 06:27:24;;;;;;;5.35;3.95;;;;;;;16.88;57.03;100413.41;5039276;28;20454;-75
2023/05/20 06:29:49;;;;;;;3.80;2.90;;;;;;;16.88;56.89;100411.50;5049564;28;20496;-74
2023/05/20 06:32:15;;;;;;;3.90;2.80;;;;;;;16.88;57.11;100408.75;5038629;28;20409;-74
2023/05/20 06:34:40;;;;;;;3.90;2.50;;;;;;;16.80;57.23;100414.00;5027257;28;20411;-74
2023/05/20 06:37:05;;;;;;;3.90;2.77;;;;;;;16.89;57.07;100404.09;5035519;28;20572;-74
2023/05/20 06:39:30;;;;;;;6.07;3.17;;;;;;;16.98;56.86;100407.84;5038564;28;21084;-74
2023/05/20 06:41:56;;;;;;;3.20;2.67;;;;;;;17.03;56.89;100397.66;5048707;28;20401;-74
2023/05/20 06:44:21;;;;;;;2.93;2.70;;;;;;;17.08;56.92;100391.31;5037415;28;20414;-74
2023/05/20 06:46:46;;;;;;;3.77;2.87;;;;;;;17.06;57.05;100396.25;5049455;28;20782;-74
2023/05/20 06:49:11;;;;;;;3.93;2.80;;;;;;;17.10;57.16;100389.91;5035679;28;20772;-74
2023/05/20 06:51:37;;;;;;;4.53;2.47;;;;;;;17.20;56.93;100399.94;5041428;28;20397;-74
2023/05/20 06:54:02;;;;;;;5.87;2.73;;;;;;;17.26;56.82;100403.44;5046346;28;20764;-74
2023/05/20 06:56:28;;;;;;;6.20;3.03;;;;;;;17.32;57.03;100391.34;5043535;28;20403;-74
2023/05/20 06:58:54;;;;;;;3.20;2.90;;;;;;;17.42;56.89;100404.94;5048490;28;20432;-74
2023/05/20 07:01:19;;;;;;;4.50;2.80;;;;;;;17.51;56.62;100401.25;5048653;28;20748;-75
2023/05/20 07:03:44;;;;;;;5.10;3.10;;;;;;;17.55;56.62;100401.47;5047112;28;20465;-74
2023/05/20 07:06:10;;;;;;;3.93;2.40;;;;;;;17.54;56.52;100397.09;5043966;28;20400;-74
2023/05/20 07:08:35;;;;;;;3.60;2.70;;;;;;;17.55;56.64;100393.25;5041171;28;20759;-74
2023/05/20 07:11:00;;;;;;;4.65;3.10;;;;;;;17.49;57.20;100389.75;5046374;28;20404;-74
2023/05/20 07:13:26;;;;;;;5.60;3.13;;;;;;;17.40;57.46;100380.53;5042545;28;20903;-74
2023/05/20 07:15:51;;;;;;;4.67;2.90;;;;;;;17.38;57.36;100391.00;5033915;28;20399;-74
2023/05/20 07:18:16;;;;;;;3.63;2.97;;;;;;;17.40;57.49;100387.94;5030270;28;20422;-74
2023/05/20 07:20:43;;;;;;;3.60;3.00;;;;;;;17.38;57.74;100380.03;5043922;28;20398;-74
2023/05/20 07:23:09;;;;;;;4.40;3.15;;;;;;;17.42;57.71;100370.09;5031184;28;20410;-74
2023/05/20 07:25:34;;;;;;;3.63;3.07;;;;;;;17.47;57.78;100367.31;5043378;28;20393;-75
2023/05/20 07:28:00;;;;;;;4.00;3.60;;;;;;;17.51;57.72;100362.88;5032976;28;20796;-75
2023/05/20 07:30:28;;;;;;;6.10;3.07;;;;;;;17.57;57.76;100359.00;5028350;28;20427;-72
2023/05/20 07:32:56;;;;;;;2.78;2.60;;;;;;;17.63;57.96;100363.31;5034341;28;20395;-73
2023/05/20 07:35:23;;;;;;;4.60;2.58;;;;;;;17.67;58.04;100365.47;5029697;28;20430;-75
2023/05/20 07:37:48;;;;;;;4.53;2.77;;;;;;;17.68;57.88;100367.09;5031156;28;20469;-74
2023/05/20 07:40:14;;;;;;;4.53;3.03;;;;;;;17.71;57.90;100361.84;5032975;28;20389;-75
2023/05/20 07:42:39;;;;;;;6.07;2.63;;;;;;;17.76;57.83;100361.75;5030890;28;20754;-75
2023/05/20 07:45:05;;;;;;;6.00;2.93;;;;;;;17.84;57.81;100366.59;5041386;28;20807;-75
2023/05/20 07:47:31;;;;;;;3.60;3.30;;;;;;;17.94;57.83;100357.41;5044408;28;20392;-74
2023/05/20 07:49:57;;;;;;;4.38;3.38;;;;;;;18.06;57.69;100349.56;5038664;28;20764;-75
2023/05/20 07:52:22;;;;;;;7.80;3.70;;;;;;;18.18;57.61;100346.38;5047166;28;20401;-74
2023/05/20 07:54:47;;;;;;;3.83;3.53;;;;;;;18.29;57.08;100345.09;5033153;28;20411;-75
2023/05/20 07:57:12;;;;;;;3.97;3.57;;;;;;;18.34;56.98;100343.06;5075829;28;20409;-75
2023/05/20 07:59:38;;;;;;;3.57;3.27;;;;;;;18.39;57.03;100345.75;5046292;28;20538;-75
2023/05/20 08:02:04;;;;;;;3.80;3.50;;;;;;;18.43;57.03;100343.22;5043771;28;20406;-74
2023/05/20 08:04:29;;;;;;;5.63;3.25;;;;;;;18.52;57.21;100345.00;5035390;28;20403;-75
2023/05/20 08:06:54;;;;;;;3.23;3.03;;;;;;;18.53;56.80;100346.66;5042360;28;20409;-75
2023/05/20 08:09:20;;;;;;;3.63;3.33;;;;;;;18.62;56.84;100341.28;5029604;28;20406;-75
2023/05/20 08:11:45;;;;;;;4.17;3.20;;;;;;;18.79;56.57;100340.72;5030328;28;20513;-75
2023/05/20 08:14:11;;;;;;;5.73;3.20;;;;;;;18.83;56.40;100337.06;5037844;28;20393;-74
2023/05/20 08:16:36;;;;;;;6.77;3.67;;;;;;;18.82;56.59;100340.91;5037052;28;20397;-75
2023/05/20 08:19:02;;;;;;;5.13;3.97;;;;;;;18.88;56.52;100328.72;5032852;28;20402;-74
2023/05/20 08:21:28;;;;;;;4.07;2.93;;;;;;;18.97;56.15;100328.81;5033204;28;20423;-75
2023/05/20 08:23:53;;;;;;;3.00;2.75;;;;;;;19.05;56.09;100319.91;5026457;28;20486;-75
2023/05/20 08:26:19;;;;;;;3.00;2.80;;;;;;;19.12;56.03;100317.56;5028981;28;20407;-74
2023/05/20 08:28:47;;;;;;;4.67;3.03;;;;;;;19.23;55.67;100319.00;5028500;28;20410;-74
2023/05/20 08:31:13;;;;;;;5.25;3.42;;;;;;;19.33;55.81;100313.28;5031154;28;20398;-74
2023/05/20 08:33:38;;;;;;;4.05;3.50;;;;;;;19.42;55.51;100308.75;5031168;28;20441;-74
2023/05/20 08:36:04;;;;;;;4.67;4.20;;;;;;;19.64;54.71;100308.81;5028779;28;20402;-74
2023/05/20 08:38:29;;;;;;;7.70;3.35;;;;;;;19.60;55.22;100305.03;5031679;28;20468;-74
2023/05/20 08:40:55;;;;;;;3.43;3.07;;;;;;;19.87;54.71;100304.16;5034842;28;20804;-75
2023/05/20 08:43:22;;;;;;;7.38;3.20;;;;;;;20.14;53.74;100308.75;5033810;28;20403;-74
2023/05/20 08:45:48;;;;;;;4.38;3.30;;;;;;;19.99;53.96;100304.41;5034275;28;20400;-75
2023/05/20 08:48:16;;;;;;;5.23;3.80;;;;;;;20.06;54.04;100306.75;5033583;28;20406;-74
2023/05/20 08:50:42;;;;;;;6.88;3.20;;;;;;;20.14;54.02;100300.50;5035836;28;20407;-74
2023/05/20 08:53:08;;;;;;;5.28;3.17;;;;;;;20.12;54.18;100303.56;5035983;28;20506;-74
2023/05/20 08:55:45;;;;;;;5.43;3.97;;;;;;;19.93;54.55;100291.91;5036581;28;20395;-76
2023/05/20 08:58:11;;;;;;;4.57;3.58;;;;;;;19.83;54.63;100294.09;5034018;28;20418;-76
2023/05/20 09:00:37;;;;;;;5.13;3.78;;;;;;;19.85;54.89;100294.59;5034509;28;20486;-75
2023/05/20 09:03:03;;;;;;;4.53;3.70;;;;;;;20.10;54.86;100288.50;5046091;28;20880;-75
2023/05/20 09:05:28;;;;;;;3.55;3.15;;;;;;;20.41;54.12;100281.16;5038959;28;20457;-75
2023/05/20 09:08:10;;;;;;;3.95;3.65;;;;;;;20.49;53.47;100283.13;5046889;28;20489;-75
2023/05/20 09:10:37;;;;;;;4.75;3.35;;;;;;;20.55;53.11;100286.56;5046762;28;20550;-75
2023/05/20 09:13:04;;;;;;;3.53;3.22;;;;;;;20.41;53.32;100292.16;5040378;28;20756;-74
2023/05/20 09:15:31;;;;;;;7.80;3.35;;;;;;;20.88;52.66;100290.63;5048909;28;20385;-75
2023/05/20 09:18:00;;;;;;;5.07;3.97;;;;;;;21.02;52.18;100294.09;5046417;28;20481;-75
2023/05/20 09:20:25;;;;;;;4.35;3.60;;;;;;;21.01;51.93;100302.69;5035207;28;20375;-75
2023/05/20 09:22:54;;;;;;;4.07;3.50;;;;;;;20.92;52.17;100293.56;5041781;28;20412;-75
2023/05/20 09:25:21;;;;;;;3.75;3.35;;;;;;;21.55;51.47;100296.72;5035252;28;20408;-74
2023/05/20 09:27:49;;;;;;;4.05;3.17;;;;;;;21.82;50.81;100303.09;5037870;28;20763;-75
2023/05/20 09:30:18;;;;;;;4.28;3.97;;;;;;;21.82;50.31;100301.13;5035830;28;20526;-74
2023/05/20 09:32:43;;;;;;;3.50;3.20;;;;;;;21.57;50.72;100299.94;5050288;28;20428;-75
2023/05/20 09:35:12;;;;;;;3.80;3.50;;;;;;;21.56;51.04;100294.78;5047503;28;20752;-76
2023/05/20 09:37:41;;;;;;;4.03;3.38;;;;;;;21.70;50.93;100298.22;5042414;28;20402;-74
2023/05/20 09:40:11;;;;;;;6.15;3.60;;;;;;;21.98;50.44;100298.75;5025779;28;20439;-74
2023/05/20 09:42:50;;;;;;;6.93;3.60;;;;;;;22.04;50.15;100298.25;5045936;28;20533;-74
2023/05/20 09:45:15;;;;;;;5.85;3.30;;;;;;;21.73;50.34;100289.28;5034943;28;20403;-74
2023/05/20 09:47:42;;;;;;;4.50;3.47;;;;;;;21.44;50.89;100278.06;5035239;28;20409;-74
2023/05/20 09:50:08;;;;;;;5.93;4.10;;;;;;;21.42;51.11;100272.03;5043433;28;20422;-74
2023/05/20 09:52:41;;;;;;;4.97;3.78;;;;;;;21.70;50.75;100281.66;5035594;28;20399;-74
2023/05/20 09:55:09;;;;;;;5.07;3.80;;;;;;;21.85;50.26;100272.09;5065051;28;20391;-73
2023/05/20 09:57:35;;;;;;;4.03;3.70;;;;;;;21.63;50.35;100278.56;5039741;28;20415;-74
2023/05/20 10:00:04;;;;;;;4.05;3.58;;;;;;;21.42;50.86;100281.13;5045497;28;20780;-74
2023/05/20 10:02:29;;;;;;;5.40;3.67;;;;;;;21.44;51.13;100276.09;5034780;28;20460;-74
2023/05/20 10:04:56;;;;;;;5.50;3.90;;;;;;;22.63;49.16;100268.09;5045538;28;20397;-74
2023/05/20 10:07:59;;;;;;;4.20;3.80;;;;;;;23.53;46.63;100280.59;5047310;28;20415;-74
2023/05/20 10:10:33;;;;;;;9.05;8.55;;;;;;;23.90;45.59;100273.34;5042742;28;20779;-73
2023/05/20 10:13:30;;;;;;;11.38;10.77;;;;;;;24.56;44.89;100262.31;5045686;28;20427;-74
2023/05/20 10:16:12;;;;;;;1999.90;978.05;;;;;;;25.15;44.03;100260.81;5031227;28;20393;-73
2023/05/20 10:19:07;;;;;;;1999.90;999.90;;;;;;;25.95;42.45;100263.69;5040464;28;20439;-74
2023/05/20 10:21:32;;;;;;;1999.90;999.90;;;;;;;25.56;42.07;100253.38;5025538;28;20472;-74
2023/05/20 10:24:06;;;;;;;1999.90;999.90;;;;;;;25.47;42.54;100253.47;5049085;28;20385;-74
2023/05/20 10:26:41;;;;;;;1999.90;999.90;;;;;;;25.63;42.27;100256.38;5046492;28;20402;-74
2023/05/20 10:29:19;;;;;;;1999.90;999.90;;;;;;;25.69;42.33;100253.00;5042242;28;20401;-74
2023/05/20 10:31:49;;;;;;;1999.90;999.90;;;;;;;25.55;42.33;100249.00;5049072;28;20404;-74
2023/05/20 10:34:18;;;;;;;1999.90;999.90;;;;;;;25.75;42.36;100234.94;5034277;28;21086;-74
2023/05/20 10:36:57;;;;;;;1999.90;999.90;;;;;;;26.19;41.66;100233.06;5030144;28;20379;-74
2023/05/20 10:39:27;;;;;;;1999.90;999.90;;;;;;;27.00;40.45;100231.66;5048737;28;20578;-74
2023/05/20 10:42:03;;;;;;;1999.90;873.80;;;;;;;27.58;38.46;100227.06;5040545;28;20407;-74
2023/05/20 10:44:45;;;;;;;377.85;346.35;;;;;;;28.09;37.60;100222.19;5036902;28;20881;-74
2023/05/20 10:47:12;;;;;;;6.53;6.13;;;;;;;28.59;36.63;100225.91;5037184;28;20401;-74
2023/05/20 10:49:44;;;;;;;3.10;2.90;;;;;;;28.64;36.60;100228.41;5048540;28;20428;-72
2023/05/20 10:52:10;;;;;;;3.90;3.63;;;;;;;27.97;37.58;100238.22;5045668;28;20391;-74
2023/05/20 10:54:43;;;;;;;8.90;8.20;;;;;;;27.03;38.21;100228.16;5046699;28;20461;-74
2023/05/20 10:57:08;;;;;;;203.68;189.60;;;;;;;27.34;38.22;100232.84;5048514;28;20404;-74
2023/05/20 10:59:35;;;;;;;4.18;3.92;;;;;;;29.61;34.89;100230.41;5047244;28;20396;-72
2023/05/20 11:02:01;;;;;;;4.78;3.03;;;;;;;30.49;32.94;100225.13;5046161;28;20389;-73
2023/05/20 11:04:28;;;;;;;3.83;3.40;;;;;;;28.61;35.30;100227.19;5046794;28;20495;-72
2023/05/20 11:06:54;;;;;;;5.35;3.42;;;;;;;27.64;36.64;100222.81;5048381;28;20612;-73
2023/05/20 11:09:19;;;;;;;3.03;2.83;;;;;;;27.12;37.36;100219.59;5043682;28;20443;-73
2023/05/20 11:11:50;;;;;;;3.47;3.20;;;;;;;28.22;35.25;100218.06;5035953;28;20406;-72
2023/05/20 11:14:17;;;;;;;3.20;3.00;;;;;;;28.68;34.97;100213.38;5044738;28;20766;-72
2023/05/20 11:16:42;;;;;;;5.07;3.10;;;;;;;29.79;33.17;100211.91;5048289;28;20378;-73
2023/05/20 11:19:13;;;;;;;2.92;2.70;;;;;;;28.93;34.01;100208.22;5044315;28;20401;-74
2023/05/20 11:21:45;;;;;;;3.00;2.75;;;;;;;29.73;33.29;100207.03;5044554;28;20574;-74